Time;durP1;ratioP1;P1;durP2;ratioP2;P2;SDS_P1;SDS_P2;PMS_P1;PMS_P2;Temp;Humidity;BMP_temperature;BMP_pressure;BME280_temperature;BME280_humidity;BME280_pressure;Samples;Min_cycle;Max_cycle;Signal;HPM_P1;HPM_P2
2022/03/07 00:00:33;;;;;;;6.32;3.90;;;;;;;0.38;54.64;101615.13;5011864;28;20080;-64
2022/03/07 00:03:37;;;;;;;4.78;3.75;;;;;;;0.40;53.45;101619.44;5011900;28;20060;-64
2022/03/07 00:06:40;;;;;;;7.38;5.30;;;;;;;0.40;55.36;101604.00;4992427;28;20483;-64
2022/03/07 00:09:43;;;;;;;7.45;3.88;;;;;;;0.33;55.17;101614.25;4992016;28;20046;-64
2022/03/07 00:12:48;;;;;;;7.38;4.00;;;;;;;0.17;54.99;101616.69;4994601;28;20459;-64
2022/03/07 00:15:52;;;;;;;7.05;4.20;;;;;;;0.23;55.10;101616.75;4995627;28;20045;-64
2022/03/07 00:18:55;;;;;;;5.65;4.10;;;;;;;0.32;55.97;101615.97;4995084;28;20141;-64
2022/03/07 00:21:59;;;;;;;7.00;4.35;;;;;;;0.30;56.93;101616.81;4976293;28;20177;-64
2022/03/07 00:25:03;;;;;;;6.43;4.28;;;;;;;0.30;56.15;101616.81;4975938;28;20084;-64
2022/03/07 00:28:06;;;;;;;5.35;3.95;;;;;;;0.27;56.61;101625.34;4976069;28;20062;-64
2022/03/07 00:31:09;;;;;;;6.45;4.28;;;;;;;0.21;57.14;101623.59;4971579;28;20448;-64
2022/03/07 00:34:14;;;;;;;6.07;4.68;;;;;;;0.06;58.09;101627.75;4977789;28;20062;-64
2022/03/07 00:37:17;;;;;;;6.35;4.13;;;;;;;0.07;58.79;101629.47;4983197;28;20050;-64
2022/03/07 00:40:20;;;;;;;6.50;4.30;;;;;;;-0.01;58.05;101630.25;4995401;28;20176;-65
2022/03/07 00:43:24;;;;;;;4.78;3.60;;;;;;;-0.04;57.74;101631.94;4995567;28;20129;-64
2022/03/07 00:46:27;;;;;;;;;;;;;;;-0.08;57.73;101633.63;4976165;28;20528;-64
2022/03/07 00:49:30;;;;;;;5.07;3.25;;;;;;;-0.11;56.52;101635.31;4976042;28;19968;-64
2022/03/07 00:52:33;;;;;;;5.25;3.50;;;;;;;-0.07;56.15;101639.63;4975927;28;20085;-64
2022/03/07 00:55:39;;;;;;;5.50;3.70;;;;;;;-0.05;56.74;101640.50;4963756;28;20049;-64
2022/03/07 00:58:42;;;;;;;5.95;4.13;;;;;;;-0.04;57.72;101648.22;4963280;28;20574;-64
2022/03/07 01:01:45;;;;;;;5.13;3.50;;;;;;;-0.10;58.25;101639.59;4975740;28;20053;-64
2022/03/07 01:04:49;;;;;;;;;;;;;;;-0.18;56.71;101641.25;4963198;28;20639;-64
2022/03/07 01:07:52;;;;;;;4.00;3.30;;;;;;;-0.37;57.13;101647.91;4975703;28;19921;-64
2022/03/07 01:10:56;;;;;;;;;;;;;;;-0.19;56.59;101649.78;4975773;28;20111;-64
2022/03/07 01:13:59;;;;;;;7.50;4.97;;;;;;;-0.19;58.46;101644.66;4952349;28;20402;-64
2022/03/07 01:17:03;;;;;;;9.35;4.32;;;;;;;-0.29;58.85;101647.16;4974262;28;20579;-64
2022/03/07 01:20:08;;;;;;;7.55;3.40;;;;;;;-0.40;57.18;101646.16;4962815;28;20106;-64
2022/03/07 01:23:12;;;;;;;5.45;3.28;;;;;;;-0.56;57.37;101646.84;4974377;28;20416;-64
2022/03/07 01:26:15;;;;;;;6.40;4.93;;;;;;;-0.52;57.93;101643.44;4963139;28;20062;-64
2022/03/07 01:29:19;;;;;;;5.68;3.50;;;;;;;-0.51;59.26;101653.75;4975198;28;20046;-64
2022/03/07 01:32:22;;;;;;;5.47;3.60;;;;;;;-0.57;59.21;101657.97;4975294;28;20055;-64
2022/03/07 01:35:25;;;;;;;;;;;;;;;-0.71;58.30;101652.66;4974820;28;20053;-64
2022/03/07 01:38:29;;;;;;;5.43;3.58;;;;;;;-0.65;59.55;101655.28;4974745;28;20012;-64
2022/03/07 01:41:33;;;;;;;5.82;3.90;;;;;;;-0.73;59.57;101655.22;4962789;28;20085;-64
2022/03/07 01:44:36;;;;;;;7.18;3.80;;;;;;;-0.72;59.25;101641.53;4971401;28;20062;-64
2022/03/07 01:47:40;;;;;;;5.30;3.20;;;;;;;-0.99;59.09;101651.44;4993991;28;20477;-64
2022/03/07 01:50:44;;;;;;;6.43;3.30;;;;;;;-0.76;58.53;101650.03;4981897;28;20045;-64
2022/03/07 01:53:48;;;;;;;4.47;3.22;;;;;;;-0.74;59.35;101642.34;4993917;28;20131;-64
2022/03/07 01:56:54;;;;;;;5.25;3.80;;;;;;;-0.86;60.88;101645.63;4981914;28;20103;-64
2022/03/07 01:59:58;;;;;;;6.50;4.07;;;;;;;-0.87;60.37;101631.06;4981706;28;20460;-64
2022/03/07 02:03:01;;;;;;;6.38;3.60;;;;;;;-0.86;59.90;101626.78;4981849;28;20561;-64
2022/03/07 02:06:18;;;;;;;5.47;3.10;;;;;;;-1.09;59.64;101629.06;4962361;28;20129;-64
2022/03/07 02:09:22;;;;;;;4.10;3.20;;;;;;;-0.98;60.16;101633.50;4962240;28;20057;-64
2022/03/07 02:12:25;;;;;;;5.07;3.22;;;;;;;-1.01;60.03;101620.63;4973336;28;20077;-64
2022/03/07 02:15:28;;;;;;;;;;;;;;;-1.04;60.63;101627.44;4962870;28;20065;-64
2022/03/07 02:18:33;;;;;;;;;;;;;;;-0.96;61.48;101628.38;4973826;28;19941;-64
2022/03/07 02:22:01;;;;;;;4.65;3.03;;;;;;;-1.12;60.99;101618.75;4962156;28;19941;-64
2022/03/07 02:25:09;;;;;;;6.38;3.65;;;;;;;-1.14;61.89;101615.31;4961845;28;20077;-64
2022/03/07 02:33:21;;;;;;;4.57;3.25;;;;;;;-1.22;61.95;101618.63;4975287;28;20590;-64
2022/03/07 02:36:25;;;;;;;6.13;3.38;;;;;;;-1.16;61.92;101628.13;4981292;28;20119;-64
2022/03/07 02:39:29;;;;;;;5.80;3.60;;;;;;;-1.27;61.93;101625.41;4980930;28;20195;-64
2022/03/07 02:42:32;;;;;;;;;;;;;;;-1.14;62.28;101628.16;4973223;28;20049;-64
2022/03/07 02:45:35;;;;;;;4.87;2.87;;;;;;;-1.12;63.24;101634.16;4993031;28;19925;-64
2022/03/07 02:48:40;;;;;;;5.32;3.70;;;;;;;-1.15;62.62;101629.81;4981163;28;20128;-63
2022/03/07 02:51:43;;;;;;;4.22;3.28;;;;;;;-1.17;63.13;101629.81;4981041;28;20090;-64
2022/03/07 02:54:46;;;;;;;6.32;3.70;;;;;;;-1.20;63.09;101629.78;4992847;28;20503;-64
2022/03/07 02:57:49;;;;;;;5.00;3.90;;;;;;;-1.33;63.42;101630.47;4986845;28;20563;-64
2022/03/07 03:00:53;;;;;;;5.88;3.50;;;;;;;-1.39;62.13;101627.81;4961707;28;20046;-64
2022/03/07 03:03:56;;;;;;;5.85;3.58;;;;;;;-1.41;61.67;101626.91;4961303;28;20042;-64
2022/03/07 03:06:59;;;;;;;4.40;3.30;;;;;;;-1.57;63.66;101630.09;4973528;28;20113;-64
2022/03/07 03:10:04;;;;;;;5.03;3.67;;;;;;;-1.43;63.67;101626.91;4973174;28;20046;-64
2022/03/07 03:13:07;;;;;;;5.00;3.67;;;;;;;-1.46;63.36;101629.41;4973334;28;20053;-64
2022/03/07 03:16:10;;;;;;;3.33;2.70;;;;;;;-1.42;61.29;101625.19;4973275;28;20082;-64
2022/03/07 03:19:14;;;;;;;3.72;2.78;;;;;;;-1.52;61.46;101633.59;4991592;28;20404;-64
2022/03/07 03:22:19;;;;;;;7.70;3.67;;;;;;;-1.59;63.42;101631.78;4992728;28;20076;-64
2022/03/07 03:25:23;;;;;;;4.55;3.15;;;;;;;-1.54;62.78;101635.25;4992434;28;20119;-64
2022/03/07 03:28:26;;;;;;;5.72;3.17;;;;;;;-1.62;62.15;101634.31;4980600;28;20057;-64
2022/03/07 03:31:30;;;;;;;;;;;;;;;-1.64;63.03;101635.13;4992754;28;20133;-64
2022/03/07 03:34:33;;;;;;;4.90;3.33;;;;;;;-1.66;63.55;101630.81;4992575;28;19978;-64
2022/03/07 03:37:37;;;;;;;6.15;3.72;;;;;;;-1.77;63.79;101629.78;4992163;28;20137;-64
2022/03/07 03:40:40;;;;;;;;;;;;;;;-1.81;63.85;101638.28;4980611;28;20578;-64
2022/03/07 03:43:43;;;;;;;4.50;3.35;;;;;;;-1.83;63.10;101640.78;4992273;28;19920;-64
2022/03/07 03:46:46;;;;;;;5.00;3.03;;;;;;;-1.99;63.52;101638.81;4992888;28;20049;-64
2022/03/07 03:49:49;;;;;;;;;;;;;;;-1.88;64.09;101634.75;4984869;28;20042;-64
2022/03/07 03:52:52;;;;;;;5.55;3.33;;;;;;;-2.00;64.13;101645.66;4996180;28;20005;-64
2022/03/07 03:55:55;;;;;;;5.57;4.03;;;;;;;-2.09;65.40;101645.50;4984193;28;20085;-64
2022/03/07 03:58:59;;;;;;;5.85;3.30;;;;;;;-2.04;64.94;101638.75;4996025;28;20518;-64
2022/03/07 04:02:02;;;;;;;4.75;3.42;;;;;;;-1.97;64.73;101642.28;4996235;28;20053;-64
2022/03/07 04:05:06;;;;;;;5.05;3.50;;;;;;;-2.08;64.74;101647.19;4983857;28;20105;-64
2022/03/07 04:08:09;;;;;;;6.68;3.55;;;;;;;-2.04;64.19;101643.00;4995894;28;20128;-64
2022/03/07 04:11:12;;;;;;;4.78;3.85;;;;;;;-2.16;64.40;101638.53;4995483;28;20045;-64
2022/03/07 04:14:16;;;;;;;5.00;3.72;;;;;;;-2.38;66.10;101644.97;4995853;28;20045;-64
2022/03/07 04:17:19;;;;;;;5.55;3.58;;;;;;;-2.33;65.91;101648.47;4995653;28;20049;-64
2022/03/07 04:20:23;;;;;;;6.43;3.35;;;;;;;-2.22;64.21;101654.66;4983419;28;20057;-64
2022/03/07 04:23:26;;;;;;;7.57;3.50;;;;;;;-2.34;65.32;101654.44;4983583;28;20100;-64
2022/03/07 04:26:29;;;;;;;5.53;2.85;;;;;;;-2.28;63.41;101649.41;4983785;28;20050;-64
2022/03/07 04:29:33;;;;;;;6.50;3.88;;;;;;;-2.35;64.47;101658.69;4989151;28;20044;-64
2022/03/07 04:32:37;;;;;;;5.18;3.35;;;;;;;-2.44;65.08;101660.22;4994828;28;20089;-64
2022/03/07 04:35:40;;;;;;;7.13;3.78;;;;;;;-2.36;65.42;101661.25;4995004;28;20458;-64
2022/03/07 04:38:44;;;;;;;7.60;3.45;;;;;;;-2.48;66.14;101666.13;4993741;28;20065;-64
2022/03/07 04:41:47;;;;;;;;;;;;;;;-2.41;64.78;101660.28;5008779;28;20629;-64
2022/03/07 04:44:50;;;;;;;6.77;3.27;;;;;;;-2.44;63.72;101665.34;5014171;28;20017;-64
2022/03/07 04:47:54;;;;;;;4.90;3.60;;;;;;;-2.58;64.50;101657.41;4976813;28;20049;-64
2022/03/07 04:50:57;;;;;;;4.65;2.85;;;;;;;-2.59;65.53;101653.94;4975312;28;20054;-64
2022/03/07 04:54:00;;;;;;;5.20;3.63;;;;;;;-2.52;65.56;101651.50;4974912;28;20044;-64
2022/03/07 04:57:05;;;;;;;5.18;3.20;;;;;;;-2.48;65.41;101655.88;4975273;28;20048;-64
2022/03/07 05:00:10;;;;;;;5.50;3.73;;;;;;;-2.51;64.89;101668.63;4962422;28;20064;-64
2022/03/07 05:03:14;;;;;;;6.40;3.73;;;;;;;-2.76;66.20;101670.69;4951647;28;20049;-64
2022/03/07 05:06:17;;;;;;;;;;;;;;;-2.68;66.64;101668.25;4990850;28;20065;-64
2022/03/07 05:09:24;;;;;;;6.05;3.63;;;;;;;-2.70;65.55;101667.38;4991329;28;19981;-67
2022/03/07 05:12:28;;;;;;;4.25;2.80;;;;;;;-2.64;64.47;101660.69;4990596;28;20053;-65
2022/03/07 05:15:32;;;;;;;5.32;3.85;;;;;;;-2.72;65.63;101662.22;4988366;28;20045;-64
2022/03/07 05:18:35;;;;;;;5.63;3.60;;;;;;;-2.65;65.22;101669.22;4986675;28;20464;-64
2022/03/07 05:21:39;;;;;;;8.30;4.80;;;;;;;-2.61;65.43;101671.00;4990770;28;20194;-66
2022/03/07 05:24:42;;;;;;;7.43;4.43;;;;;;;-2.64;66.01;101670.06;4990747;28;20710;-64
2022/03/07 05:27:46;;;;;;;11.10;5.60;;;;;;;-2.63;65.69;101682.88;4991411;28;20045;-63
2022/03/07 05:30:50;;;;;;;92.80;46.90;;;;;;;-2.73;65.79;101678.44;4990923;28;20105;-64
2022/03/07 05:33:53;;;;;;;27.40;17.52;;;;;;;-2.90;67.17;101678.09;4979028;28;20118;-64
2022/03/07 05:36:57;;;;;;;63.58;32.45;;;;;;;-2.93;66.89;101680.56;4990727;28;20130;-65
2022/03/07 05:40:00;;;;;;;28.15;15.40;;;;;;;-2.85;67.05;101683.28;4989996;28;20049;-65
2022/03/07 05:43:04;;;;;;;16.35;9.70;;;;;;;-2.80;67.17;101686.81;4989761;28;20125;-64
2022/03/07 05:46:07;;;;;;;11.57;7.32;;;;;;;-2.78;67.16;101691.94;4989681;28;20050;-64
2022/03/07 05:49:10;;;;;;;10.45;5.93;;;;;;;-2.68;66.88;101688.75;4990857;28;20045;-64
2022/03/07 05:52:15;;;;;;;10.15;5.55;;;;;;;-2.83;67.42;101689.31;4989176;28;20077;-65
2022/03/07 05:55:18;;;;;;;6.67;4.27;;;;;;;-2.75;67.73;101686.91;4988406;28;20142;-65
2022/03/07 05:58:22;;;;;;;4.60;3.72;;;;;;;-2.67;67.44;101686.22;4985562;28;20041;-65
2022/03/07 06:01:25;;;;;;;6.47;4.28;;;;;;;-2.69;67.51;101694.72;4989180;28;20104;-66
2022/03/07 06:04:29;;;;;;;;;;;;;;;-2.79;68.03;101691.09;4989846;28;20499;-65
2022/03/07 06:07:34;;;;;;;7.95;5.35;;;;;;;-2.57;66.80;101693.25;4989820;28;20056;-64
2022/03/07 06:10:38;;;;;;;6.50;4.53;;;;;;;-2.61;67.02;101683.78;4989006;28;20142;-64
2022/03/07 06:13:41;;;;;;;10.60;5.07;;;;;;;-2.64;66.16;101686.28;4988839;28;20049;-64
2022/03/07 06:16:44;;;;;;;7.70;4.65;;;;;;;-2.67;66.82;101696.47;4961001;28;20073;-64
2022/03/07 06:19:48;;;;;;;6.60;5.05;;;;;;;-2.68;67.25;101698.97;4986292;28;20049;-64
2022/03/07 06:22:52;;;;;;;7.72;4.90;;;;;;;-2.59;67.09;101697.47;4988990;28;20045;-64
2022/03/07 06:25:55;;;;;;;7.80;4.57;;;;;;;-2.62;66.89;101710.25;4989775;28;20401;-64
2022/03/07 06:29:00;;;;;;;5.13;4.03;;;;;;;-2.48;67.03;101712.22;4988735;28;20535;-64
2022/03/07 06:32:04;;;;;;;6.38;4.35;;;;;;;-2.51;67.07;101709.59;4976562;28;20057;-64
2022/03/07 06:35:08;;;;;;;6.68;4.50;;;;;;;-2.28;67.08;101699.78;4968701;28;20049;-65
2022/03/07 06:38:12;;;;;;;7.03;4.38;;;;;;;-2.30;66.63;101702.31;4956959;28;20115;-64
2022/03/07 06:41:15;;;;;;;10.60;4.53;;;;;;;-2.45;66.79;101707.16;4970142;28;20115;-65
2022/03/07 06:44:18;;;;;;;7.18;5.00;;;;;;;-2.57;66.98;101708.63;4955454;28;20066;-65
2022/03/07 06:47:21;;;;;;;;;;;;;;;-2.60;66.85;101703.44;4956265;28;20057;-65
2022/03/07 06:50:25;;;;;;;5.15;3.90;;;;;;;-2.50;67.34;101708.75;4967599;28;19961;-64
2022/03/07 06:53:28;;;;;;;6.38;4.38;;;;;;;-2.59;67.95;101710.28;4967865;28;20038;-64
2022/03/07 06:56:31;;;;;;;;;;;;;;;-2.26;66.85;101709.25;4967851;28;20150;-65
2022/03/07 06:59:35;;;;;;;5.03;3.33;;;;;;;-2.24;66.29;101714.38;4969010;28;20395;-65
2022/03/07 07:02:38;;;;;;;8.30;4.70;;;;;;;-2.30;66.66;101717.69;4971586;28;20108;-64
2022/03/07 07:05:41;;;;;;;6.72;4.00;;;;;;;-2.37;67.23;101710.72;4959467;28;20053;-64
2022/03/07 07:08:45;;;;;;;6.68;4.40;;;;;;;-2.30;66.97;101712.56;4972289;28;20177;-64
2022/03/07 07:11:48;;;;;;;5.57;4.55;;;;;;;-2.16;67.17;101713.69;4973445;28;20087;-65
2022/03/07 07:14:51;;;;;;;12.63;5.25;;;;;;;-2.09;66.32;101721.50;4972690;28;20511;-65
2022/03/07 07:17:55;;;;;;;9.23;4.22;;;;;;;-2.22;65.92;101711.03;4972938;28;20077;-64
2022/03/07 07:20:59;;;;;;;6.00;4.00;;;;;;;-1.98;66.01;101722.56;4972675;28;20081;-65
2022/03/07 07:24:03;;;;;;;8.07;5.10;;;;;;;-1.82;65.81;101724.56;4972493;28;20501;-64
2022/03/07 07:27:07;;;;;;;6.13;4.20;;;;;;;-1.56;64.70;101730.16;4973271;28;20105;-65
2022/03/07 07:30:11;;;;;;;7.45;5.35;;;;;;;-1.42;65.06;101727.81;4972889;28;20089;-65
2022/03/07 07:33:15;;;;;;;5.72;4.28;;;;;;;-1.32;64.12;101723.69;4972807;28;20405;-65
2022/03/07 07:36:18;;;;;;;6.35;4.75;;;;;;;-1.52;65.82;101721.66;4967912;28;20049;-65
2022/03/07 07:39:21;;;;;;;6.75;4.70;;;;;;;-1.45;65.23;101725.19;4970371;28;20050;-63
2022/03/07 07:42:25;;;;;;;5.57;4.20;;;;;;;-1.34;64.46;101725.34;4972217;28;20058;-63
2022/03/07 07:45:32;;;;;;;8.05;4.95;;;;;;;-1.43;64.84;101720.97;4969130;28;20096;-63
2022/03/07 07:48:35;;;;;;;7.00;4.38;;;;;;;-1.22;64.02;101730.69;4972173;28;20136;-63
2022/03/07 07:51:39;;;;;;;6.93;4.65;;;;;;;-0.96;62.65;101724.25;4973092;28;20519;-63
2022/03/07 07:54:42;;;;;;;8.20;4.63;;;;;;;-1.02;63.49;101728.41;4972829;28;20404;-63
2022/03/07 07:57:49;;;;;;;7.18;5.03;;;;;;;-1.09;61.97;101732.59;4972592;28;20041;-65
2022/03/07 08:01:04;;;;;;;7.57;5.57;;;;;;;-0.92;61.95;101722.59;4968683;28;20049;-64
2022/03/07 08:04:08;;;;;;;9.48;5.50;;;;;;;-0.98;62.16;101730.19;4971372;28;20050;-64
2022/03/07 08:07:12;;;;;;;9.48;5.95;;;;;;;-0.89;61.08;101719.16;4987602;28;20496;-64
2022/03/07 08:10:17;;;;;;;8.63;5.88;;;;;;;-0.83;60.17;101725.28;4986018;28;20495;-64
2022/03/07 08:13:20;;;;;;;7.55;6.03;;;;;;;-0.77;60.82;101727.91;4971072;28;20117;-64
2022/03/07 08:16:25;;;;;;;6.95;5.43;;;;;;;-0.61;60.99;101726.41;4952517;29;20055;-65
2022/03/07 08:19:28;;;;;;;7.32;5.85;;;;;;;-0.51;60.40;101733.41;4952565;29;20051;-65
2022/03/07 08:22:31;;;;;;;8.35;6.10;;;;;;;-0.37;60.22;101735.28;4941222;29;20564;-64
2022/03/07 08:25:35;;;;;;;7.97;6.15;;;;;;;-0.26;60.28;101734.53;4951773;29;20050;-64
2022/03/07 08:28:39;;;;;;;8.95;6.68;;;;;;;-0.19;60.73;101725.22;4952367;29;20452;-64
2022/03/07 08:31:42;;;;;;;8.63;5.97;;;;;;;-0.10;60.13;101730.44;4952973;29;20090;-64
2022/03/07 08:34:46;;;;;;;;;;;;;;;0.05;59.03;101719.47;4956919;29;20106;-64
2022/03/07 08:37:52;;;;;;;8.75;6.30;;;;;;;0.23;59.06;101719.66;4941435;29;19941;-64
2022/03/07 08:40:55;;;;;;;8.70;5.07;;;;;;;0.42;58.70;101717.25;4955872;29;20552;-64
2022/03/07 08:43:58;;;;;;;;;;;;;;;0.61;57.02;101720.84;4967186;28;20052;-64
2022/03/07 08:47:01;;;;;;;7.00;5.80;;;;;;;0.72;54.93;101724.34;4982811;28;19920;-64
2022/03/07 08:50:06;;;;;;;;;;;;;;;0.81;54.36;101719.25;4995339;28;20081;-64
2022/03/07 08:53:09;;;;;;;7.60;4.70;;;;;;;0.95;53.73;101716.75;4994605;28;19924;-64
2022/03/07 08:56:13;;;;;;;8.63;5.00;;;;;;;1.03;52.87;101719.41;4955675;29;20081;-64
2022/03/07 08:59:17;;;;;;;8.10;4.60;;;;;;;1.18;53.61;101711.75;4955735;29;20087;-64
2022/03/07 09:02:20;;;;;;;8.57;5.45;;;;;;;1.30;53.02;101714.38;4955580;29;20424;-64
2022/03/07 09:05:24;;;;;;;8.40;4.68;;;;;;;1.24;52.51;101716.94;4935887;29;20049;-64
2022/03/07 09:08:27;;;;;;;6.75;4.57;;;;;;;1.37;51.43;101710.13;4953841;29;20413;-64
2022/03/07 09:11:30;;;;;;;7.07;4.72;;;;;;;1.26;51.34;101712.66;4955483;28;20535;-64
2022/03/07 09:14:34;;;;;;;;;;;;;;;1.43;51.08;101710.16;4965148;28;20050;-64
2022/03/07 09:17:37;;;;;;;8.48;5.10;;;;;;;1.56;51.19;101706.78;4974404;28;19972;-65
2022/03/07 09:20:40;;;;;;;6.38;4.32;;;;;;;1.59;51.10;101708.50;4975152;28;20050;-65
2022/03/07 09:23:46;;;;;;;8.45;5.13;;;;;;;1.83;50.36;101708.59;4974050;28;20165;-64
2022/03/07 09:26:50;;;;;;;6.50;4.10;;;;;;;1.94;49.76;101718.91;4962280;28;20041;-65
2022/03/07 09:29:53;;;;;;;6.60;4.75;;;;;;;1.95;50.09;101715.50;4974875;28;20045;-65
2022/03/07 09:32:58;;;;;;;;;;;;;;;2.14;49.50;101715.50;4974714;28;20046;-64
2022/03/07 09:36:01;;;;;;;7.07;4.15;;;;;;;2.27;48.99;101699.22;4974862;28;20029;-64
2022/03/07 09:39:06;;;;;;;7.65;3.75;;;;;;;2.24;47.64;101712.97;4974483;28;20078;-64
2022/03/07 09:42:15;;;;;;;7.53;4.07;;;;;;;1.99;48.71;101701.75;4951513;28;20174;-65
2022/03/07 09:45:19;;;;;;;5.38;3.50;;;;;;;2.00;48.87;101708.63;4956581;28;20086;-64
2022/03/07 09:48:24;;;;;;;9.15;5.25;;;;;;;2.05;48.04;101706.06;4974116;28;20146;-65
2022/03/07 09:51:28;;;;;;;6.47;4.10;;;;;;;2.26;48.76;101706.06;4974427;28;20175;-65
2022/03/07 09:54:31;;;;;;;7.50;4.15;;;;;;;2.28;47.90;101708.66;4976176;28;20480;-64
2022/03/07 09:57:34;;;;;;;4.68;3.55;;;;;;;2.22;48.08;101708.66;4970671;28;20538;-64
2022/03/07 10:00:41;;;;;;;;;;;;;;;2.13;47.86;101711.22;4994015;28;20077;-64
2022/03/07 10:03:44;;;;;;;5.88;3.67;;;;;;;1.97;48.07;101711.19;4993329;28;19975;-64
2022/03/07 10:06:51;;;;;;;6.28;3.70;;;;;;;1.97;48.36;101707.75;4993398;28;20046;-64
2022/03/07 10:10:08;;;;;;;6.28;4.28;;;;;;;2.13;47.96;101704.34;4981436;28;20045;-64
2022/03/07 10:13:13;;;;;;;6.30;4.70;;;;;;;2.29;48.61;101703.47;4980525;28;20396;-64
2022/03/07 10:16:22;;;;;;;7.45;3.97;;;;;;;2.39;48.01;101706.94;4803252;28;10000734;-65
2022/03/07 10:19:26;;;;;;;8.27;3.78;;;;;;;2.37;47.41;101697.50;4971362;28;20875;-64
2022/03/07 10:22:29;;;;;;;6.78;3.97;;;;;;;2.29;47.21;101705.22;4962131;28;20053;-64
2022/03/07 10:26:09;;;;;;;6.07;3.97;;;;;;;2.26;47.45;101702.63;4959682;28;20041;-64
2022/03/07 10:29:12;;;;;;;5.68;4.22;;;;;;;2.47;47.52;101705.22;4972129;28;20093;-64
2022/03/07 10:32:17;;;;;;;5.05;3.83;;;;;;;2.30;46.91;101712.13;4973649;28;20110;-64
2022/03/07 10:35:25;;;;;;;6.38;4.68;;;;;;;2.29;47.27;101711.22;4973213;28;20511;-64
2022/03/07 10:38:29;;;;;;;6.53;3.83;;;;;;;2.42;47.50;101696.59;4969957;28;20460;-65
2022/03/07 10:41:50;;;;;;;6.57;4.70;;;;;;;2.60;47.58;101687.16;4958721;28;20044;-65
2022/03/07 10:45:03;;;;;;;6.57;4.30;;;;;;;2.76;48.05;101687.13;4961553;28;20124;-65
2022/03/07 10:48:06;;;;;;;8.77;4.32;;;;;;;2.93;47.07;101694.84;4970047;28;20050;-64
2022/03/07 10:51:16;;;;;;;5.82;4.18;;;;;;;2.92;46.67;101711.22;4970161;28;20435;-65
2022/03/07 10:54:21;;;;;;;6.40;4.22;;;;;;;2.94;46.93;101709.50;4952322;28;20690;-64
2022/03/07 10:57:25;;;;;;;7.13;4.32;;;;;;;3.08;46.97;101708.59;4989458;28;20124;-65
2022/03/07 11:00:29;;;;;;;7.35;4.70;;;;;;;3.23;45.99;101705.97;4989773;28;20511;-65
2022/03/07 11:03:33;;;;;;;;;;;;;;;3.09;45.82;101705.16;4990106;28;20101;-65
2022/03/07 11:06:37;;;;;;;6.05;4.43;;;;;;;3.06;46.06;101710.31;4989275;28;20442;-65
2022/03/07 11:09:41;;;;;;;5.07;3.92;;;;;;;3.06;45.86;101699.97;4977105;28;20045;-65
2022/03/07 11:12:45;;;;;;;6.40;4.55;;;;;;;3.06;45.48;101684.47;4987605;28;20531;-65
2022/03/07 11:15:50;;;;;;;;;;;;;;;3.28;46.09;101686.13;4996611;28;20432;-65
2022/03/07 11:18:54;;;;;;;5.95;4.25;;;;;;;3.56;46.51;101680.84;4988009;28;19964;-65
2022/03/07 11:21:58;;;;;;;7.30;5.25;;;;;;;3.60;45.19;101682.56;4976007;28;20112;-65
2022/03/07 11:25:04;;;;;;;6.28;4.28;;;;;;;3.66;45.55;101679.94;4987978;28;20189;-65
2022/03/07 11:28:08;;;;;;;8.77;4.75;;;;;;;3.69;44.73;101679.91;4989234;28;20661;-65
2022/03/07 11:31:22;;;;;;;6.50;4.43;;;;;;;3.75;45.29;101677.31;4988909;28;20100;-65
2022/03/07 11:34:25;;;;;;;7.63;5.82;;;;;;;3.60;45.18;101672.19;4988028;28;20049;-65
2022/03/07 11:37:31;;;;;;;;;;;;;;;3.70;45.36;101666.09;4987309;28;20049;-66
2022/03/07 11:40:34;;;;;;;8.23;4.78;;;;;;;3.81;44.80;101663.47;4987410;28;19971;-65
2022/03/07 11:43:51;;;;;;;6.72;4.75;;;;;;;4.03;45.26;101661.63;4985957;28;20539;-66
2022/03/07 11:46:54;;;;;;;7.80;4.45;;;;;;;4.09;44.84;101658.97;4987284;28;20108;-65
2022/03/07 11:49:59;;;;;;;;;;;;;;;4.09;44.04;101654.66;4987254;28;20518;-66
2022/03/07 11:53:03;;;;;;;8.60;5.40;;;;;;;4.18;43.71;101651.16;4987467;28;19941;-65
2022/03/07 11:56:15;;;;;;;7.68;5.63;;;;;;;4.13;43.72;101642.53;4977575;28;20068;-66
2022/03/07 11:59:29;;;;;;;5.75;4.57;;;;;;;4.15;43.33;101631.31;4987423;28;20081;-65
2022/03/07 12:02:41;;;;;;;13.88;5.20;;;;;;;4.23;43.37;101623.47;4974952;28;20169;-65
2022/03/07 12:05:45;;;;;;;8.80;5.55;;;;;;;4.31;42.75;101610.47;4976763;28;20040;-64
2022/03/07 12:08:49;;;;;;;6.72;5.00;;;;;;;4.41;43.08;101592.25;4991096;28;20041;-65
2022/03/07 12:12:10;;;;;;;6.20;4.88;;;;;;;4.43;43.03;101600.88;4979875;28;20097;-65
2022/03/07 12:15:14;;;;;;;6.75;5.07;;;;;;;4.62;41.74;101591.16;4999800;28;20557;-65
2022/03/07 12:18:17;;;;;;;6.88;4.93;;;;;;;4.66;42.03;101597.19;4972779;28;20046;-64
2022/03/07 12:21:25;;;;;;;6.95;4.93;;;;;;;4.79;41.29;101585.81;4972787;28;20053;-67
2022/03/07 12:24:29;;;;;;;6.80;5.43;;;;;;;5.00;41.82;101583.81;4972991;28;20044;-67
2022/03/07 12:27:37;;;;;;;;;;;;;;;4.97;41.08;101579.53;4980873;28;20045;-65
2022/03/07 12:30:41;;;;;;;7.25;4.85;;;;;;;5.36;40.60;101577.31;4991665;28;19920;-65
2022/03/07 12:33:45;;;;;;;;;;;;;;;5.74;40.46;101576.75;4992812;28;20046;-65
2022/03/07 12:36:56;;;;;;;8.70;5.72;;;;;;;5.95;38.97;101567.78;4980541;28;19924;-65
2022/03/07 12:40:03;;;;;;;7.43;5.53;;;;;;;5.93;38.78;101566.94;4969379;28;20054;-65
2022/03/07 12:43:08;;;;;;;10.15;5.90;;;;;;;5.95;38.42;101562.59;4990937;28;20052;-65
2022/03/07 12:46:12;;;;;;;14.68;6.20;;;;;;;6.14;37.81;101557.94;4992332;28;20061;-65
2022/03/07 12:49:19;;;;;;;12.23;5.45;;;;;;;6.44;38.05;101542.69;4979242;28;20403;-65
2022/03/07 12:52:22;;;;;;;7.38;5.80;;;;;;;6.59;37.78;101547.59;4991436;28;20411;-65
2022/03/07 12:55:25;;;;;;;8.35;5.68;;;;;;;6.88;36.76;101533.16;4991749;28;20049;-65
2022/03/07 12:58:29;;;;;;;6.45;5.13;;;;;;;7.05;36.65;101538.88;4992188;28;20412;-66
2022/03/07 13:01:35;;;;;;;8.55;5.65;;;;;;;7.38;36.06;101524.25;4992350;28;20128;-65
2022/03/07 13:04:38;;;;;;;6.28;4.97;;;;;;;7.73;34.61;101519.13;4992185;28;20057;-65
2022/03/07 13:07:59;;;;;;;7.75;6.05;;;;;;;8.09;34.42;101522.53;4992087;28;20558;-65
2022/03/07 13:11:02;;;;;;;8.65;4.75;;;;;;;8.50;33.74;101512.78;4979657;28;20133;-65
2022/03/07 13:14:05;;;;;;;7.50;5.25;;;;;;;8.96;32.02;101499.25;4972709;28;20093;-65
2022/03/07 13:17:19;;;;;;;6.22;5.40;;;;;;;10.34;29.92;101494.78;4989473;28;20045;-65
2022/03/07 13:20:26;;;;;;;5.90;4.70;;;;;;;11.74;27.82;101495.47;4990868;28;20044;-65
2022/03/07 13:23:29;;;;;;;6.00;5.25;;;;;;;13.21;25.00;101493.31;4991633;28;20053;-66
2022/03/07 13:26:33;;;;;;;7.00;4.13;;;;;;;16.00;22.71;101492.41;4991588;28;20053;-66
2022/03/07 13:29:41;;;;;;;7.38;4.70;;;;;;;17.19;20.14;101493.88;4991224;28;20045;-66
2022/03/07 13:32:44;;;;;;;6.00;4.85;;;;;;;18.19;19.45;101482.81;4979122;28;20045;-66
2022/03/07 13:35:47;;;;;;;6.00;4.85;;;;;;;18.88;18.29;101474.47;4978766;28;20081;-66
2022/03/07 13:38:51;;;;;;;6.72;4.78;;;;;;;18.69;18.72;101473.09;4991314;28;20049;-67
2022/03/07 13:42:00;;;;;;;7.70;5.30;;;;;;;19.62;17.52;101460.16;4990958;28;20064;-66
2022/03/07 13:45:07;;;;;;;4.90;4.40;;;;;;;19.52;17.05;101464.44;4990720;28;20133;-66
2022/03/07 13:48:12;;;;;;;5.28;4.25;;;;;;;19.23;17.10;101459.47;4991521;28;20463;-67
2022/03/07 13:51:15;;;;;;;5.20;3.90;;;;;;;19.81;16.98;101464.06;4990992;28;20053;-67
2022/03/07 13:54:18;;;;;;;4.72;4.22;;;;;;;19.91;16.81;101449.13;4990513;28;20111;-67
2022/03/07 13:57:29;;;;;;;5.47;4.45;;;;;;;18.46;17.50;101447.41;4990731;28;20040;-67
2022/03/07 14:00:33;;;;;;;6.25;4.30;;;;;;;19.22;17.04;101447.19;4990006;28;20171;-67
2022/03/07 14:03:36;;;;;;;5.13;4.03;;;;;;;19.88;16.59;101444.91;4990008;28;20077;-67
2022/03/07 14:06:41;;;;;;;5.03;3.97;;;;;;;19.62;16.99;101436.25;4978095;28;20050;-67
2022/03/07 14:09:59;;;;;;;4.63;3.20;;;;;;;18.85;18.13;101427.00;4990723;28;20482;-67
2022/03/07 14:13:03;;;;;;;3.80;2.90;;;;;;;17.84;18.33;101448.19;4989849;28;20053;-66
2022/03/07 14:16:07;;;;;;;5.78;3.53;;;;;;;14.77;21.64;101447.63;4989390;28;20052;-66
2022/03/07 14:19:10;;;;;;;4.88;3.60;;;;;;;14.55;22.39;101446.22;4992417;28;20536;-66
2022/03/07 14:22:19;;;;;;;6.20;4.72;;;;;;;13.86;22.82;101455.06;4990722;28;20057;-66
2022/03/07 14:25:22;;;;;;;4.88;3.97;;;;;;;13.87;23.05;101454.13;4990246;28;20057;-66
2022/03/07 14:28:25;;;;;;;4.78;3.70;;;;;;;13.98;22.94;101443.06;4990080;28;20084;-66
2022/03/07 14:31:31;;;;;;;7.32;4.20;;;;;;;16.36;20.54;101453.34;4989454;28;20103;-66
2022/03/07 14:34:34;;;;;;;5.50;4.13;;;;;;;15.24;20.76;101458.16;4989726;28;20096;-65